sensor_id;sensor_type;location;lat;lon;timestamp;pressure;altitude;pressure_sealevel;temperature;humidity
21236;BME280;10775;42.678;26.324;2022-11-20T00:00:26;98340.25;;;15.57;100.00
21236;BME280;10775;42.678;26.324;2022-11-20T00:02:52;98332.63;;;15.51;100.00
21236;BME280;10775;42.678;26.324;2022-11-20T00:05:17;98349.22;;;15.53;100.00
21236;BME280;10775;42.678;26.324;2022-11-20T00:07:43;98339.84;;;15.47;100.00
21236;BME280;10775;42.678;26.324;2022-11-20T00:10:09;98341.59;;;15.47;100.00
21236;BME280;10775;42.678;26.324;2022-11-20T00:12:34;98337.97;;;15.49;100.00
21236;BME280;10775;42.678;26.324;2022-11-20T00:15:00;98351.13;;;15.49;100.00
21236;BME280;10775;42.678;26.324;2022-11-20T00:17:26;98358.84;;;15.54;100.00
21236;BME280;10775;42.678;26.324;2022-11-20T00:19:51;98352.56;;;15.56;100.00
21236;BME280;10775;42.678;26.324;2022-11-20T00:22:17;98342.47;;;15.66;100.00
21236;BME280;10775;42.678;26.324;2022-11-20T00:24:42;98352.97;;;15.68;100.00
21236;BME280;10775;42.678;26.324;2022-11-20T00:27:08;98349.69;;;15.62;100.00
21236;BME280;10775;42.678;26.324;2022-11-20T00:29:34;98342.13;;;15.55;100.00
21236;BME280;10775;42.678;26.324;2022-11-20T00:32:00;98365.09;;;15.51;100.00
21236;BME280;10775;42.678;26.324;2022-11-20T00:34:25;98346.81;;;15.48;100.00
21236;BME280;10775;42.678;26.324;2022-11-20T00:36:51;98345.09;;;15.47;100.00
21236;BME280;10775;42.678;26.324;2022-11-20T00:39:16;98342.53;;;15.46;100.00
21236;BME280;10775;42.678;26.324;2022-11-20T00:41:42;98345.22;;;15.44;100.00
21236;BME280;10775;42.678;26.324;2022-11-20T00:44:08;98334.69;;;15.44;100.00
21236;BME280;10775;42.678;26.324;2022-11-20T00:46:33;98347.19;;;15.39;100.00
21236;BME280;10775;42.678;26.324;2022-11-20T00:48:59;98326.97;;;15.60;100.00
21236;BME280;10775;42.678;26.324;2022-11-20T00:51:26;98343.75;;;15.57;100.00
21236;BME280;10775;42.678;26.324;2022-11-20T00:53:51;98330.06;;;15.49;100.00
21236;BME280;10775;42.678;26.324;2022-11-20T00:56:18;98331.28;;;15.42;100.00
21236;BME280;10775;42.678;26.324;2022-11-20T00:58:45;98333.31;;;15.35;100.00
21236;BME280;10775;42.678;26.324;2022-11-20T01:01:18;98342.22;;;15.33;100.00
21236;BME280;10775;42.678;26.324;2022-11-20T01:03:47;98342.34;;;15.30;100.00
21236;BME280;10775;42.678;26.324;2022-11-20T01:08:48;98321.63;;;15.22;100.00
21236;BME280;10775;42.678;26.324;2022-11-20T01:11:16;98322.69;;;15.18;100.00
21236;BME280;10775;42.678;26.324;2022-11-20T01:13:43;98323.63;;;15.17;100.00
21236;BME280;10775;42.678;26.324;2022-11-20T01:16:11;98324.41;;;15.19;100.00
21236;BME280;10775;42.678;26.324;2022-11-20T01:18:38;98331.38;;;15.20;100.00
21236;BME280;10775;42.678;26.324;2022-11-20T01:21:09;98326.06;;;15.21;100.00
21236;BME280;10775;42.678;26.324;2022-11-20T01:23:38;98328.59;;;15.23;100.00
21236;BME280;10775;42.678;26.324;2022-11-20T01:26:06;98323.19;;;15.26;100.00
21236;BME280;10775;42.678;26.324;2022-11-20T01:28:33;98344.34;;;15.25;100.00
21236;BME280;10775;42.678;26.324;2022-11-20T01:30:59;98337.34;;;15.23;100.00
21236;BME280;10775;42.678;26.324;2022-11-20T01:33:25;98338.47;;;15.18;100.00
21236;BME280;10775;42.678;26.324;2022-11-20T01:35:51;98339.22;;;15.21;100.00
21236;BME280;10775;42.678;26.324;2022-11-20T01:38:17;98344.47;;;15.21;100.00
21236;BME280;10775;42.678;26.324;2022-11-20T01:40:43;98346.03;;;15.26;100.00
21236;BME280;10775;42.678;26.324;2022-11-20T01:43:19;98325.44;;;15.35;100.00
21236;BME280;10775;42.678;26.324;2022-11-20T01:45:52;98326.44;;;15.52;100.00
21236;BME280;10775;42.678;26.324;2022-11-20T01:48:21;98330.84;;;15.51;100.00
21236;BME280;10775;42.678;26.324;2022-11-20T01:50:50;98320.19;;;15.92;100.00
21236;BME280;10775;42.678;26.324;2022-11-20T01:53:18;98327.34;;;15.90;100.00
21236;BME280;10775;42.678;26.324;2022-11-20T01:55:52;98336.38;;;15.84;100.00
21236;BME280;10775;42.678;26.324;2022-11-20T01:58:21;98332.88;;;15.84;100.00
21236;BME280;10775;42.678;26.324;2022-11-20T02:00:48;98314.97;;;16.09;100.00
21236;BME280;10775;42.678;26.324;2022-11-20T02:03:16;98316.97;;;16.23;100.00
21236;BME280;10775;42.678;26.324;2022-11-20T02:05:47;98320.72;;;16.18;100.00
21236;BME280;10775;42.678;26.324;2022-11-20T02:08:15;98321.84;;;16.14;100.00
21236;BME280;10775;42.678;26.324;2022-11-20T02:10:41;98305.41;;;16.43;100.00
21236;BME280;10775;42.678;26.324;2022-11-20T02:13:07;98314.53;;;16.55;100.00
21236;BME280;10775;42.678;26.324;2022-11-20T02:15:52;98315.28;;;16.40;100.00
21236;BME280;10775;42.678;26.324;2022-11-20T02:18:20;98314.28;;;16.42;100.00
21236;BME280;10775;42.678;26.324;2022-11-20T02:20:48;98306.97;;;16.30;100.00
21236;BME280;10775;42.678;26.324;2022-11-20T02:24:18;98318.28;;;16.32;100.00
21236;BME280;10775;42.678;26.324;2022-11-20T02:26:13;98317.59;;;16.28;100.00
21236;BME280;10775;42.678;26.324;2022-11-20T02:28:41;98317.34;;;16.33;100.00
21236;BME280;10775;42.678;26.324;2022-11-20T02:31:07;98324.19;;;16.37;100.00
21236;BME280;10775;42.678;26.324;2022-11-20T02:33:32;98317.91;;;16.40;100.00
21236;BME280;10775;42.678;26.324;2022-11-20T02:35:58;98304.41;;;16.46;100.00
21236;BME280;10775;42.678;26.324;2022-11-20T02:38:23;98306.41;;;16.41;100.00
21236;BME280;10775;42.678;26.324;2022-11-20T02:40:49;98286.31;;;16.38;100.00
21236;BME280;10775;42.678;26.324;2022-11-20T02:43:15;98287.88;;;16.42;100.00
21236;BME280;10775;42.678;26.324;2022-11-20T02:45:41;98300.00;;;16.46;100.00
21236;BME280;10775;42.678;26.324;2022-11-20T02:48:07;98295.09;;;16.56;100.00
21236;BME280;10775;42.678;26.324;2022-11-20T02:50:33;98281.84;;;16.58;100.00
21236;BME280;10775;42.678;26.324;2022-11-20T02:52:58;98296.59;;;16.79;100.00
21236;BME280;10775;42.678;26.324;2022-11-20T02:55:24;98291.78;;;16.70;100.00
21236;BME280;10775;42.678;26.324;2022-11-20T02:57:49;98303.03;;;16.73;100.00
21236;BME280;10775;42.678;26.324;2022-11-20T03:00:15;98304.47;;;16.81;100.00
21236;BME280;10775;42.678;26.324;2022-11-20T03:02:40;98296.69;;;16.78;100.00
21236;BME280;10775;42.678;26.324;2022-11-20T03:05:06;98296.16;;;16.88;100.00
21236;BME280;10775;42.678;26.324;2022-11-20T03:07:32;98292.94;;;16.82;100.00
21236;BME280;10775;42.678;26.324;2022-11-20T03:09:57;98285.66;;;16.87;100.00
21236;BME280;10775;42.678;26.324;2022-11-20T03:12:22;98292.41;;;16.75;100.00
21236;BME280;10775;42.678;26.324;2022-11-20T03:14:48;98304.81;;;16.73;100.00
21236;BME280;10775;42.678;26.324;2022-11-20T03:17:13;98308.88;;;16.80;100.00
21236;BME280;10775;42.678;26.324;2022-11-20T03:19:39;98318.50;;;16.81;100.00
21236;BME280;10775;42.678;26.324;2022-11-20T03:22:04;98314.00;;;16.83;100.00
21236;BME280;10775;42.678;26.324;2022-11-20T03:24:30;98308.78;;;16.82;100.00
21236;BME280;10775;42.678;26.324;2022-11-20T03:26:55;98302.75;;;16.80;100.00
21236;BME280;10775;42.678;26.324;2022-11-20T03:29:21;98297.59;;;16.77;100.00
21236;BME280;10775;42.678;26.324;2022-11-20T03:31:46;98293.19;;;16.77;100.00
21236;BME280;10775;42.678;26.324;2022-11-20T03:34:12;98287.53;;;16.85;100.00
21236;BME280;10775;42.678;26.324;2022-11-20T03:36:39;98285.41;;;16.91;100.00
21236;BME280;10775;42.678;26.324;2022-11-20T03:39:05;98288.84;;;16.93;100.00
21236;BME280;10775;42.678;26.324;2022-11-20T03:41:31;98296.75;;;16.93;100.00
21236;BME280;10775;42.678;26.324;2022-11-20T03:44:02;98277.28;;;16.96;100.00
21236;BME280;10775;42.678;26.324;2022-11-20T03:46:28;98272.94;;;16.95;100.00
21236;BME280;10775;42.678;26.324;2022-11-20T03:48:54;98286.13;;;16.95;100.00
21236;BME280;10775;42.678;26.324;2022-11-20T03:51:20;98283.31;;;16.98;100.00
21236;BME280;10775;42.678;26.324;2022-11-20T03:53:47;98281.59;;;16.97;100.00
21236;BME280;10775;42.678;26.324;2022-11-20T03:56:15;98274.97;;;16.90;100.00
21236;BME280;10775;42.678;26.324;2022-11-20T03:58:41;98277.13;;;16.82;100.00
21236;BME280;10775;42.678;26.324;2022-11-20T04:01:12;98270.94;;;16.83;100.00
21236;BME280;10775;42.678;26.324;2022-11-20T04:03:40;98267.44;;;16.82;100.00
21236;BME280;10775;42.678;26.324;2022-11-20T04:08:32;98256.22;;;16.77;100.00
21236;BME280;10775;42.678;26.324;2022-11-20T04:11:09;98255.34;;;16.77;100.00
21236;BME280;10775;42.678;26.324;2022-11-20T04:13:35;98254.59;;;16.74;100.00
21236;BME280;10775;42.678;26.324;2022-11-20T04:16:00;98249.72;;;16.67;100.00
21236;BME280;10775;42.678;26.324;2022-11-20T04:18:26;98255.00;;;16.67;100.00
21236;BME280;10775;42.678;26.324;2022-11-20T04:20:51;98255.25;;;16.80;100.00
21236;BME280;10775;42.678;26.324;2022-11-20T04:23:17;98259.88;;;16.74;100.00
21236;BME280;10775;42.678;26.324;2022-11-20T04:25:42;98261.63;;;16.74;100.00
21236;BME280;10775;42.678;26.324;2022-11-20T04:28:08;98267.69;;;16.76;100.00
21236;BME280;10775;42.678;26.324;2022-11-20T04:30:33;98269.44;;;16.77;100.00
21236;BME280;10775;42.678;26.324;2022-11-20T04:32:59;98255.88;;;16.85;100.00
21236;BME280;10775;42.678;26.324;2022-11-20T04:35:24;98262.84;;;16.86;100.00
21236;BME280;10775;42.678;26.324;2022-11-20T04:37:53;98270.81;;;16.84;100.00
21236;BME280;10775;42.678;26.324;2022-11-20T04:40:18;98268.66;;;16.75;100.00
21236;BME280;10775;42.678;26.324;2022-11-20T04:42:44;98274.84;;;16.74;100.00
21236;BME280;10775;42.678;26.324;2022-11-20T04:45:09;98266.16;;;16.72;100.00
21236;BME280;10775;42.678;26.324;2022-11-20T04:47:35;98276.72;;;16.72;100.00
21236;BME280;10775;42.678;26.324;2022-11-20T04:50:00;98278.88;;;16.64;100.00
21236;BME280;10775;42.678;26.324;2022-11-20T04:52:26;98285.16;;;16.61;100.00
21236;BME280;10775;42.678;26.324;2022-11-20T04:54:51;98294.88;;;16.61;100.00
21236;BME280;10775;42.678;26.324;2022-11-20T04:57:20;98288.97;;;16.56;100.00
21236;BME280;10775;42.678;26.324;2022-11-20T04:59:46;98281.69;;;16.61;100.00
21236;BME280;10775;42.678;26.324;2022-11-20T05:02:11;98280.06;;;16.58;100.00
21236;BME280;10775;42.678;26.324;2022-11-20T05:04:37;98297.00;;;16.54;100.00
21236;BME280;10775;42.678;26.324;2022-11-20T05:07:03;98305.91;;;16.51;100.00
21236;BME280;10775;42.678;26.324;2022-11-20T05:09:29;98311.31;;;16.48;100.00
21236;BME280;10775;42.678;26.324;2022-11-20T05:11:55;98304.50;;;16.44;100.00
21236;BME280;10775;42.678;26.324;2022-11-20T05:14:20;98301.09;;;16.42;100.00
21236;BME280;10775;42.678;26.324;2022-11-20T05:16:46;98300.84;;;16.47;100.00
21236;BME280;10775;42.678;26.324;2022-11-20T05:19:11;98315.13;;;16.43;100.00
21236;BME280;10775;42.678;26.324;2022-11-20T05:21:37;98310.94;;;16.39;100.00
21236;BME280;10775;42.678;26.324;2022-11-20T05:24:02;98302.03;;;16.41;100.00
21236;BME280;10775;42.678;26.324;2022-11-20T05:26:28;98326.69;;;16.40;100.00
21236;BME280;10775;42.678;26.324;2022-11-20T05:28:53;98307.44;;;16.38;100.00
21236;BME280;10775;42.678;26.324;2022-11-20T05:31:24;98315.13;;;16.43;100.00
21236;BME280;10775;42.678;26.324;2022-11-20T05:33:50;98313.31;;;16.43;100.00
21236;BME280;10775;42.678;26.324;2022-11-20T05:36:16;98313.66;;;16.55;100.00
21236;BME280;10775;42.678;26.324;2022-11-20T05:38:43;98316.47;;;16.51;100.00
21236;BME280;10775;42.678;26.324;2022-11-20T05:41:16;98327.78;;;16.53;100.00
21236;BME280;10775;42.678;26.324;2022-11-20T05:43:44;98321.59;;;16.55;100.00
21236;BME280;10775;42.678;26.324;2022-11-20T05:46:13;98328.41;;;16.59;100.00
21236;BME280;10775;42.678;26.324;2022-11-20T05:48:41;98327.78;;;16.53;100.00
21236;BME280;10775;42.678;26.324;2022-11-20T05:51:08;98325.00;;;16.74;100.00
21236;BME280;10775;42.678;26.324;2022-11-20T05:53:34;98314.56;;;16.90;100.00
21236;BME280;10775;42.678;26.324;2022-11-20T05:56:05;98322.22;;;16.94;100.00
21236;BME280;10775;42.678;26.324;2022-11-20T05:58:32;98330.47;;;16.88;100.00
21236;BME280;10775;42.678;26.324;2022-11-20T06:01:22;98351.91;;;16.82;100.00
21236;BME280;10775;42.678;26.324;2022-11-20T06:03:48;98331.03;;;16.78;100.00
21236;BME280;10775;42.678;26.324;2022-11-20T06:06:16;98351.47;;;16.72;100.00
21236;BME280;10775;42.678;26.324;2022-11-20T06:08:43;98348.91;;;16.71;100.00
21236;BME280;10775;42.678;26.324;2022-11-20T06:11:11;98340.75;;;16.76;100.00
21236;BME280;10775;42.678;26.324;2022-11-20T06:13:37;98354.97;;;16.73;100.00
21236;BME280;10775;42.678;26.324;2022-11-20T06:16:03;98350.34;;;16.78;100.00
21236;BME280;10775;42.678;26.324;2022-11-20T06:18:29;98352.03;;;16.79;100.00
21236;BME280;10775;42.678;26.324;2022-11-20T06:21:06;98361.03;;;16.75;100.00
21236;BME280;10775;42.678;26.324;2022-11-20T06:23:33;98342.56;;;16.75;100.00
21236;BME280;10775;42.678;26.324;2022-11-20T06:26:04;98360.09;;;16.76;100.00
21236;BME280;10775;42.678;26.324;2022-11-20T06:28:30;98349.63;;;16.74;100.00
21236;BME280;10775;42.678;26.324;2022-11-20T06:30:56;98356.81;;;16.71;100.00
21236;BME280;10775;42.678;26.324;2022-11-20T06:33:22;98348.91;;;16.71;100.00
21236;BME280;10775;42.678;26.324;2022-11-20T06:35:48;98350.91;;;16.66;100.00
21236;BME280;10775;42.678;26.324;2022-11-20T06:38:13;98357.13;;;16.65;100.00
21236;BME280;10775;42.678;26.324;2022-11-20T06:40:42;98347.44;;;16.65;100.00
21236;BME280;10775;42.678;26.324;2022-11-20T06:43:09;98348.13;;;16.69;100.00
21236;BME280;10775;42.678;26.324;2022-11-20T06:45:35;98347.91;;;16.73;100.00
21236;BME280;10775;42.678;26.324;2022-11-20T06:48:00;98354.69;;;16.79;100.00
21236;BME280;10775;42.678;26.324;2022-11-20T06:50:26;98351.91;;;16.82;100.00
21236;BME280;10775;42.678;26.324;2022-11-20T06:52:51;98363.22;;;16.84;100.00
21236;BME280;10775;42.678;26.324;2022-11-20T06:55:17;98355.41;;;16.83;100.00
21236;BME280;10775;42.678;26.324;2022-11-20T06:57:42;98364.00;;;16.86;100.00
21236;BME280;10775;42.678;26.324;2022-11-20T07:00:08;98362.69;;;16.95;100.00
21236;BME280;10775;42.678;26.324;2022-11-20T07:02:34;98372.66;;;16.90;100.00
21236;BME280;10775;42.678;26.324;2022-11-20T07:05:00;98370.22;;;16.85;100.00
21236;BME280;10775;42.678;26.324;2022-11-20T07:07:25;98371.91;;;16.86;100.00
21236;BME280;10775;42.678;26.324;2022-11-20T07:09:51;98380.16;;;16.80;100.00
21236;BME280;10775;42.678;26.324;2022-11-20T07:12:16;98365.25;;;16.79;100.00
21236;BME280;10775;42.678;26.324;2022-11-20T07:14:42;98376.50;;;16.83;100.00
21236;BME280;10775;42.678;26.324;2022-11-20T07:17:07;98388.78;;;16.84;100.00
21236;BME280;10775;42.678;26.324;2022-11-20T07:19:33;98380.94;;;16.82;100.00
21236;BME280;10775;42.678;26.324;2022-11-20T07:21:58;98376.50;;;16.83;100.00
21236;BME280;10775;42.678;26.324;2022-11-20T07:24:24;98386.13;;;16.84;100.00
21236;BME280;10775;42.678;26.324;2022-11-20T07:26:49;98378.84;;;16.89;100.00
21236;BME280;10775;42.678;26.324;2022-11-20T07:29:15;98383.19;;;16.90;100.00
21236;BME280;10775;42.678;26.324;2022-11-20T07:31:42;98380.41;;;16.93;100.00
21236;BME280;10775;42.678;26.324;2022-11-20T07:34:08;98380.00;;;17.01;100.00
21236;BME280;10775;42.678;26.324;2022-11-20T07:36:33;98375.59;;;17.01;100.00
21236;BME280;10775;42.678;26.324;2022-11-20T07:38:59;98386.16;;;17.01;100.00
21236;BME280;10775;42.678;26.324;2022-11-20T07:41:25;98382.56;;;17.02;100.00
21236;BME280;10775;42.678;26.324;2022-11-20T07:43:50;98376.03;;;17.09;100.00
21236;BME280;10775;42.678;26.324;2022-11-20T07:46:16;98368.84;;;17.13;100.00
21236;BME280;10775;42.678;26.324;2022-11-20T07:48:41;98357.56;;;17.09;100.00
21236;BME280;10775;42.678;26.324;2022-11-20T07:51:07;98364.56;;;17.10;100.00
21236;BME280;10775;42.678;26.324;2022-11-20T07:53:32;98361.66;;;17.15;100.00
21236;BME280;10775;42.678;26.324;2022-11-20T07:56:02;98369.44;;;17.18;100.00
21236;BME280;10775;42.678;26.324;2022-11-20T07:58:31;98363.06;;;17.22;100.00
21236;BME280;10775;42.678;26.324;2022-11-20T08:01:01;98352.19;;;17.28;100.00
21236;BME280;10775;42.678;26.324;2022-11-20T08:03:27;98352.47;;;17.39;100.00
21236;BME280;10775;42.678;26.324;2022-11-20T08:05:53;98350.66;;;17.40;100.00
21236;BME280;10775;42.678;26.324;2022-11-20T08:08:18;98343.69;;;17.39;100.00
21236;BME280;10775;42.678;26.324;2022-11-20T08:10:44;98342.97;;;17.35;100.00
21236;BME280;10775;42.678;26.324;2022-11-20T08:13:09;98343.84;;;17.36;100.00
21236;BME280;10775;42.678;26.324;2022-11-20T08:15:54;98343.59;;;17.41;100.00
21236;BME280;10775;42.678;26.324;2022-11-20T08:18:19;98349.66;;;17.43;100.00
21236;BME280;10775;42.678;26.324;2022-11-20T08:20:45;98338.47;;;17.37;100.00
21236;BME280;10775;42.678;26.324;2022-11-20T08:23:11;98341.97;;;17.38;100.00
21236;BME280;10775;42.678;26.324;2022-11-20T08:25:37;98340.28;;;17.37;100.00
21236;BME280;10775;42.678;26.324;2022-11-20T08:28:08;98330.53;;;17.37;100.00
21236;BME280;10775;42.678;26.324;2022-11-20T08:30:35;98349.13;;;17.36;100.00
21236;BME280;10775;42.678;26.324;2022-11-20T08:33:08;98337.09;;;17.30;100.00
21236;BME280;10775;42.678;26.324;2022-11-20T08:35:36;98343.31;;;17.29;100.00
21236;BME280;10775;42.678;26.324;2022-11-20T08:38:03;98343.47;;;17.26;100.00
21236;BME280;10775;42.678;26.324;2022-11-20T08:40:30;98339.81;;;17.29;100.00
21236;BME280;10775;42.678;26.324;2022-11-20T08:42:55;98344.31;;;17.27;100.00
21236;BME280;10775;42.678;26.324;2022-11-20T08:45:21;98346.97;;;17.27;100.00
21236;BME280;10775;42.678;26.324;2022-11-20T08:47:46;98354.72;;;17.30;100.00
21236;BME280;10775;42.678;26.324;2022-11-20T08:50:14;98345.00;;;17.30;100.00
21236;BME280;10775;42.678;26.324;2022-11-20T08:52:40;98340.75;;;17.28;100.00
21236;BME280;10775;42.678;26.324;2022-11-20T08:55:06;98337.09;;;17.30;100.00
21236;BME280;10775;42.678;26.324;2022-11-20T08:57:33;98339.72;;;17.30;100.00
21236;BME280;10775;42.678;26.324;2022-11-20T08:59:59;98329.31;;;17.27;100.00
21236;BME280;10775;42.678;26.324;2022-11-20T09:02:24;98335.44;;;17.28;100.00
21236;BME280;10775;42.678;26.324;2022-11-20T09:04:50;98344.25;;;17.28;100.00
21236;BME280;10775;42.678;26.324;2022-11-20T09:07:16;98338.19;;;17.26;100.00
21236;BME280;10775;42.678;26.324;2022-11-20T09:09:41;98330.34;;;17.25;100.00
21236;BME280;10775;42.678;26.324;2022-11-20T09:12:07;98319.88;;;17.23;100.00
21236;BME280;10775;42.678;26.324;2022-11-20T09:14:33;98317.13;;;17.25;100.00
21236;BME280;10775;42.678;26.324;2022-11-20T09:16:59;98310.84;;;17.27;100.00
21236;BME280;10775;42.678;26.324;2022-11-20T09:19:24;98312.47;;;17.30;100.00
21236;BME280;10775;42.678;26.324;2022-11-20T09:21:50;98298.22;;;17.32;100.00
21236;BME280;10775;42.678;26.324;2022-11-20T09:24:16;98296.44;;;17.33;100.00
21236;BME280;10775;42.678;26.324;2022-11-20T09:26:42;98295.59;;;17.32;100.00
21236;BME280;10775;42.678;26.324;2022-11-20T09:29:07;98286.88;;;17.30;100.00
21236;BME280;10775;42.678;26.324;2022-11-20T09:31:33;98283.34;;;17.31;100.00
21236;BME280;10775;42.678;26.324;2022-11-20T09:33:58;98285.03;;;17.32;100.00
21236;BME280;10775;42.678;26.324;2022-11-20T09:36:24;98273.59;;;17.32;100.00
21236;BME280;10775;42.678;26.324;2022-11-20T09:38:49;98269.16;;;17.32;100.00
21236;BME280;10775;42.678;26.324;2022-11-20T09:46:45;98257.94;;;17.45;100.00
21236;BME280;10775;42.678;26.324;2022-11-20T09:54:23;98266.13;;;17.56;100.00
21236;BME280;10775;42.678;26.324;2022-11-20T09:56:58;98271.34;;;17.57;100.00
21236;BME280;10775;42.678;26.324;2022-11-20T09:59:40;98272.28;;;17.56;100.00
21236;BME280;10775;42.678;26.324;2022-11-20T10:04:47;98246.72;;;17.57;100.00
21236;BME280;10775;42.678;26.324;2022-11-20T10:07:29;98257.09;;;17.60;100.00
21236;BME280;10775;42.678;26.324;2022-11-20T10:09:56;98249.53;;;17.70;100.00
21236;BME280;10775;42.678;26.324;2022-11-20T10:15:10;98235.78;;;17.63;100.00
21236;BME280;10775;42.678;26.324;2022-11-20T10:25:42;98243.28;;;17.55;100.00
21236;BME280;10775;42.678;26.324;2022-11-20T10:30:51;98228.81;;;17.62;100.00
21236;BME280;10775;42.678;26.324;2022-11-20T10:33:24;98225.03;;;17.66;100.00
21236;BME280;10775;42.678;26.324;2022-11-20T10:35:53;98232.66;;;17.72;100.00
21236;BME280;10775;42.678;26.324;2022-11-20T10:38:48;98232.06;;;17.83;100.00
21236;BME280;10775;42.678;26.324;2022-11-20T10:41:20;98243.75;;;17.95;100.00
21236;BME280;10775;42.678;26.324;2022-11-20T10:44:02;98246.38;;;18.11;100.00
21236;BME280;10775;42.678;26.324;2022-11-20T10:46:34;98242.59;;;18.15;100.00
21236;BME280;10775;42.678;26.324;2022-11-20T10:49:09;98247.53;;;18.21;100.00
21236;BME280;10775;42.678;26.324;2022-11-20T10:51:44;98252.38;;;18.29;97.69
21236;BME280;10775;42.678;26.324;2022-11-20T10:57:45;98246.97;;;18.46;96.04
21236;BME280;10775;42.678;26.324;2022-11-20T11:00:14;98243.44;;;18.45;94.98
21236;BME280;10775;42.678;26.324;2022-11-20T11:02:53;98233.16;;;18.41;92.41
21236;BME280;10775;42.678;26.324;2022-11-20T11:05:29;98246.53;;;18.38;93.35
21236;BME280;10775;42.678;26.324;2022-11-20T11:07:58;98234.53;;;18.32;93.26
21236;BME280;10775;42.678;26.324;2022-11-20T11:10:32;98238.78;;;18.35;94.21
21236;BME280;10775;42.678;26.324;2022-11-20T11:13:01;98225.66;;;18.33;92.88
21236;BME280;10775;42.678;26.324;2022-11-20T11:17:54;98233.50;;;18.35;90.20
21236;BME280;10775;42.678;26.324;2022-11-20T11:20:25;98223.09;;;18.32;91.72
21236;BME280;10775;42.678;26.324;2022-11-20T11:22:53;98223.88;;;18.34;91.06
21236;BME280;10775;42.678;26.324;2022-11-20T11:25:21;98233.41;;;18.36;90.87
21236;BME280;10775;42.678;26.324;2022-11-20T11:27:48;98231.63;;;18.37;91.49
21236;BME280;10775;42.678;26.324;2022-11-20T11:30:15;98216.69;;;18.36;92.06
21236;BME280;10775;42.678;26.324;2022-11-20T11:32:42;98219.69;;;18.30;92.25
21236;BME280;10775;42.678;26.324;2022-11-20T11:35:22;98210.31;;;18.24;92.60
21236;BME280;10775;42.678;26.324;2022-11-20T11:37:49;98200.09;;;18.18;93.35
21236;BME280;10775;42.678;26.324;2022-11-20T11:40:18;98206.44;;;18.15;93.46
21236;BME280;10775;42.678;26.324;2022-11-20T11:42:48;98210.94;;;18.13;93.87
21236;BME280;10775;42.678;26.324;2022-11-20T11:45:16;98200.38;;;18.13;94.21
21236;BME280;10775;42.678;26.324;2022-11-20T11:55:18;98178.81;;;18.05;94.80
21236;BME280;10775;42.678;26.324;2022-11-20T12:00:22;98185.97;;;18.03;94.59
21236;BME280;10775;42.678;26.324;2022-11-20T12:02:56;98182.19;;;18.07;94.79
21236;BME280;10775;42.678;26.324;2022-11-20T12:05:29;98173.72;;;18.16;94.10
21236;BME280;10775;42.678;26.324;2022-11-20T12:16:12;98165.53;;;18.21;91.51
21236;BME280;10775;42.678;26.324;2022-11-20T12:18:39;98165.06;;;18.29;91.16
21236;BME280;10775;42.678;26.324;2022-11-20T12:21:34;98154.69;;;18.40;91.08
21236;BME280;10775;42.678;26.324;2022-11-20T12:27:05;98144.94;;;18.40;90.85
21236;BME280;10775;42.678;26.324;2022-11-20T12:30:13;98153.00;;;18.39;90.85
21236;BME280;10775;42.678;26.324;2022-11-20T12:38:20;98164.88;;;18.32;90.73
21236;BME280;10775;42.678;26.324;2022-11-20T12:40:58;98157.03;;;18.30;91.66
21236;BME280;10775;42.678;26.324;2022-11-20T12:43:44;98152.97;;;18.24;90.00
21236;BME280;10775;42.678;26.324;2022-11-20T12:46:46;98144.00;;;18.27;90.87
21236;BME280;10775;42.678;26.324;2022-11-20T13:00:18;98150.13;;;18.28;92.82
21236;BME280;10775;42.678;26.324;2022-11-20T13:05:37;98143.06;;;18.28;92.82
21236;BME280;10775;42.678;26.324;2022-11-20T13:08:12;98134.25;;;18.28;91.11
21236;BME280;10775;42.678;26.324;2022-11-20T13:19:02;98132.03;;;18.50;88.72
21236;BME280;10775;42.678;26.324;2022-11-20T13:21:47;98119.56;;;18.52;87.71
21236;BME280;10775;42.678;26.324;2022-11-20T13:29:35;98127.50;;;18.66;83.61
21236;BME280;10775;42.678;26.324;2022-11-20T13:32:03;98127.97;;;18.73;84.38
21236;BME280;10775;42.678;26.324;2022-11-20T13:34:30;98112.19;;;18.72;84.42
21236;BME280;10775;42.678;26.324;2022-11-20T13:36:58;98122.09;;;18.68;84.81
21236;BME280;10775;42.678;26.324;2022-11-20T13:39:34;98120.69;;;18.62;84.44
21236;BME280;10775;42.678;26.324;2022-11-20T13:42:24;98112.81;;;18.61;83.16
21236;BME280;10775;42.678;26.324;2022-11-20T13:44:54;98121.81;;;18.58;84.00
21236;BME280;10775;42.678;26.324;2022-11-20T13:47:23;98125.13;;;18.62;84.09
21236;BME280;10775;42.678;26.324;2022-11-20T13:49:49;98128.81;;;18.59;84.77
21236;BME280;10775;42.678;26.324;2022-11-20T13:52:39;98126.53;;;18.53;85.54
21236;BME280;10775;42.678;26.324;2022-11-20T13:58:10;98125.84;;;18.35;85.87
21236;BME280;10775;42.678;26.324;2022-11-20T14:00:57;98112.34;;;18.40;85.85
21236;BME280;10775;42.678;26.324;2022-11-20T14:03:24;98103.56;;;18.39;86.14
21236;BME280;10775;42.678;26.324;2022-11-20T14:06:00;98107.44;;;18.34;86.46
21236;BME280;10775;42.678;26.324;2022-11-20T14:11:25;98104.31;;;18.27;86.81
21236;BME280;10775;42.678;26.324;2022-11-20T14:14:02;98106.19;;;18.25;87.29
21236;BME280;10775;42.678;26.324;2022-11-20T14:16:31;98107.06;;;18.25;85.94
21236;BME280;10775;42.678;26.324;2022-11-20T14:19:11;98107.91;;;18.26;87.02
21236;BME280;10775;42.678;26.324;2022-11-20T14:21:42;98096.47;;;18.25;86.24
21236;BME280;10775;42.678;26.324;2022-11-20T14:24:11;98105.06;;;18.29;85.51
21236;BME280;10775;42.678;26.324;2022-11-20T14:26:45;98110.38;;;18.29;85.59